Titusville, FL

9:06 PM EDT on August 27, 2014 (GMT -0400)
Royal Oak | Change Station
CLOSE
Current Station
Personal Weather Station
Location: Titusville, FL
Elevation: 59 ft
Nearby Weather Stations

Elev 59 ft 28.58 °N, 80.83 °W | Updated 13 minutes ago

Partly Cloudy
Partly Cloudy
79.5 °F
Feels Like 84 °F
N
0.0
Wind Variable Wind from WNW

Today
High -- | Low -- °F
--% Chance of Precip.
Yesterday
High -- | Low -- °F
Precip. -- in
6:58 AM 7:50 PM
Waxing Crescent, 5% visible
Pressure 30.00 in
Visibility 7.0 miles
Clouds Few 1800 ft
Heat Index 84 °F
Dew Point 75 °F
Humidity 85%
Rainfall 0.54 in
Snow Depth Not available.
UV 0 out of 12
Pollen 7.90 out of 12
Air Quality Not available.
Flu Activity Not available.
METAR KTIX 280047Z 07012KT 7SM FEW018 27/23 A3000 RMK LAST

More Conditions Fewer Conditions

Pressure 30.00 in
Visibility 7.0 miles
Clouds Few 1800 ft
Heat Index 84 °F
Dew Point 75 °F
Humidity 85%
Rainfall 0.54 in
Snow Depth Not available.
UV 0 out of 12
Pollen 7.90 out of 12
Air Quality Not available.
Flu Activity Not available.
METAR KTIX 280047Z 07012KT 7SM FEW018 27/23 A3000 RMK LAST

More Conditions Fewer Conditions

10-Day Weather Forecast

Almanac

Astronomy

Aug. 27, 2014 Rise Set
Actual Time 6:58 AM EDT 7:50 PM EDT
Civil Twilight 6:34 AM EDT 8:14 PM EDT
Nautical Twilight 6:06 AM EDT 8:42 PM EDT
Astronomical Twilight 5:36 AM EDT 9:11 PM EDT
Moon 8:40 AM EDT (8/27) 8:56 PM EDT (8/27)
Length of Visible Light 13h 39m
Length of Day
12h 51m
Tomorrow will be 1m 37s shorter.
Waxing Crescent, 5% of the Moon is Illuminated
Today
Waxing Crescent
Sep 2
First Quarter
Sep 8
Full
Sep 15
Last Quarter
Sep 24
New

Today's Extremes

State Highs State Lows

Community

WunderPhotos

Upload Photos

1,747,843 photos uploaded!

Nearby

Snow Depth

Station Depth Elevation
No new snow has been reported.

Earthquake Activity

City Distance Mag. Time & Date
No recent earthquake activity has been reported nearby.
Minimum magnitude displayed is 2.5.

Coastal Water Temperatures

Place Temperature
Trident Pier, FL 82.9 °F
Fort Myers, FL 89.1 °F
Lake Worth, FL 87.1 °F

Nearby Weather Stations